KSHR

Sheridan County Airport

Sheridan, Wyoming, USA
METAR KSHR 150053Z AUTO 08003KT 10SM CLR 17/14 A3001 RMK AO2 SLP141 T01720139
Observed Flight Rules
Aug-15 @ 00:53 UTC (10 minutes ago) Visual Flight Rules
Wind Visibility Clouds
80° at 3 knots 10 miles
  • Clear skies
Temperatures Readings
Current 17°C / 63°F
Dewpoint 14°C / 57°F
Humidity 83%
Altimeter 30.01" Hg
Pressure 1014.1 hPa
Elevation 1202
METAR KSHR 150053Z AUTO 08003KT 10SM CLR 17/14 A3001 RMK AO2 SLP141 T01720139
Observed Flight Rules
Aug-15 @ 00:53 UTC
(10 minutes ago)
VFR
Wind Visibility
80° at 3 knots 10 miles
Clouds
  • Clear skies
Temperature Dewpoint
17°C / 63°F 14°C / 57°F
Humidity Altimeter Pressure
83% 30.01" Hg 1014.1 hPa